McNeil, AR

5:42 PM CDT on August 31, 2016 (GMT -0500)
Stephens Fire Department | | Change Station

Elev 266 ft 33.41 °N, 93.07 °W | Updated 3 seconds ago

Partly Cloudy
Partly Cloudy
91.4 °F
Feels Like 97 °F
N
6.0
Wind Variable Wind from NE
Gusts 7.4 mph

Today
High -- | Low -- °F
--% Chance of Precip.
Yesterday
High -- | Low -- °F
Precip. -- in
Pressure 29.89 in
Visibility 10.0 miles
Clouds Few 4900 ft
Heat Index 97 °F
Dew Point 70 °F
Humidity 50%
Rainfall 0.00 in
Snow Depth Not available.
6:46 AM 7:38 PM
Waning Crescent, 0% visible
METAR KELD 312153Z AUTO 02007KT 10SM FEW049 34/22 A2990 RMK AO2 SLP122 T03440217
Pressure 29.89 in
Visibility 10.0 miles
Clouds Few 4900 ft
Heat Index 97 °F
Dew Point 70 °F
Humidity 50%
Rainfall 0.00 in
Snow Depth Not available.
6:46 AM 7:38 PM
Waning Crescent, 0% visible
METAR KELD 312153Z AUTO 02007KT 10SM FEW049 34/22 A2990 RMK AO2 SLP122 T03440217

10-Day Weather Forecast

Almanac

Astronomy

Aug. 31, 2016 Rise Set
Actual Time
Civil Twilight
Nautical Twilight
Astronomical Twilight
Moon
Length of Visible Light
Length of Day
Tomorrow will be .
, % of the Moon is Illuminated

Today's Extremes

State Highs State Lows

Community

WunderPhotos

Upload Photos

1,936,204 photos uploaded!

WunderBlog® & News

Nearby

Air Quality

  Air Quality AQ Index Pollutant
Not available.

Snow Depth

Station Depth Elevation

Earthquake Activity

City Distance Mag. Time & Date
Minimum magnitude displayed is 2.5.

Coastal Water Temperatures

Place Temperature

Stations

Nearby Weather Stations

Station Location Temp. Windchill Dew Point Humidity Wind Precip. Elev Updated Type
                   

Watches & Warnings

There are currently no watches in effect.